sensor_id;sensor_type;location;lat;lon;timestamp;P1;durP1;ratioP1;P2;durP2;ratioP2
11016;SDS011;54687;50.800;6.772;2023-03-01T01:27:44;11.47;;;9.77;;
11016;SDS011;54687;50.800;6.772;2023-03-01T01:30:11;11.33;;;10.13;;
11016;SDS011;54687;50.800;6.772;2023-03-01T01:32:38;10.83;;;9.83;;
11016;SDS011;54687;50.800;6.772;2023-03-01T01:35:05;10.57;;;9.57;;
11016;SDS011;54687;50.800;6.772;2023-03-01T01:37:32;11.17;;;10.07;;
11016;SDS011;54687;50.800;6.772;2023-03-01T01:39:59;11.67;;;10.57;;
11016;SDS011;54687;50.800;6.772;2023-03-01T01:42:29;11.70;;;10.50;;
11016;SDS011;54687;50.800;6.772;2023-03-01T01:47:51;12.20;;;11.00;;
11016;SDS011;54687;50.800;6.772;2023-03-01T01:50:20;12.80;;;11.20;;
11016;SDS011;54687;50.800;6.772;2023-03-01T01:52:48;11.17;;;10.13;;
11016;SDS011;54687;50.800;6.772;2023-03-01T01:55:17;10.10;;;9.10;;
11016;SDS011;54687;50.800;6.772;2023-03-01T01:57:48;11.60;;;10.40;;
11016;SDS011;54687;50.800;6.772;2023-03-01T02:00:17;10.80;;;9.70;;
11016;SDS011;54687;50.800;6.772;2023-03-01T02:02:48;11.87;;;9.73;;
11016;SDS011;54687;50.800;6.772;2023-03-01T02:05:20;11.73;;;10.53;;
11016;SDS011;54687;50.800;6.772;2023-03-01T02:07:52;13.00;;;10.93;;
11016;SDS011;54687;50.800;6.772;2023-03-01T02:10:19;11.30;;;10.13;;
11016;SDS011;54687;50.800;6.772;2023-03-01T02:12:47;11.67;;;10.23;;
11016;SDS011;54687;50.800;6.772;2023-03-01T02:15:13;10.67;;;9.67;;
11016;SDS011;54687;50.800;6.772;2023-03-01T02:17:40;12.07;;;10.17;;
11016;SDS011;54687;50.800;6.772;2023-03-01T02:20:10;11.67;;;10.40;;
11016;SDS011;54687;50.800;6.772;2023-03-01T02:22:43;12.03;;;10.53;;
11016;SDS011;54687;50.800;6.772;2023-03-01T02:25:12;11.77;;;10.67;;
11016;SDS011;54687;50.800;6.772;2023-03-01T02:27:57;11.40;;;10.23;;
11016;SDS011;54687;50.800;6.772;2023-03-01T02:30:30;12.47;;;11.17;;
11016;SDS011;54687;50.800;6.772;2023-03-01T02:32:58;11.63;;;10.43;;
11016;SDS011;54687;50.800;6.772;2023-03-01T02:35:30;10.90;;;9.83;;
11016;SDS011;54687;50.800;6.772;2023-03-01T02:38:01;11.60;;;10.40;;
11016;SDS011;54687;50.800;6.772;2023-03-01T02:40:29;10.73;;;9.73;;
11016;SDS011;54687;50.800;6.772;2023-03-01T02:42:59;11.57;;;10.37;;
11016;SDS011;54687;50.800;6.772;2023-03-01T02:45:26;11.00;;;9.90;;
11016;SDS011;54687;50.800;6.772;2023-03-01T02:47:54;11.23;;;10.13;;
11016;SDS011;54687;50.800;6.772;2023-03-01T02:50:24;11.73;;;10.13;;
11016;SDS011;54687;50.800;6.772;2023-03-01T02:53:08;11.87;;;10.50;;
11016;SDS011;54687;50.800;6.772;2023-03-01T02:55:38;12.60;;;11.17;;
11016;SDS011;54687;50.800;6.772;2023-03-01T02:58:05;12.17;;;10.83;;
11016;SDS011;54687;50.800;6.772;2023-03-01T03:00:34;11.60;;;10.40;;
11016;SDS011;54687;50.800;6.772;2023-03-01T03:03:06;11.80;;;9.93;;
11016;SDS011;54687;50.800;6.772;2023-03-01T03:05:33;12.00;;;10.90;;
11016;SDS011;54687;50.800;6.772;2023-03-01T03:08:01;13.90;;;10.97;;
11016;SDS011;54687;50.800;6.772;2023-03-01T03:10:30;11.50;;;10.40;;
11016;SDS011;54687;50.800;6.772;2023-03-01T03:12:59;10.97;;;9.87;;
11016;SDS011;54687;50.800;6.772;2023-03-01T03:15:28;11.63;;;10.47;;
11016;SDS011;54687;50.800;6.772;2023-03-01T03:17:55;12.53;;;11.33;;
11016;SDS011;54687;50.800;6.772;2023-03-01T03:20:25;11.53;;;10.43;;
11016;SDS011;54687;50.800;6.772;2023-03-01T03:22:53;12.30;;;10.47;;
11016;SDS011;54687;50.800;6.772;2023-03-01T03:25:21;11.50;;;10.33;;
11016;SDS011;54687;50.800;6.772;2023-03-01T03:27:49;11.50;;;10.50;;
11016;SDS011;54687;50.800;6.772;2023-03-01T03:30:22;12.20;;;10.93;;
11016;SDS011;54687;50.800;6.772;2023-03-01T03:32:50;11.90;;;10.73;;
11016;SDS011;54687;50.800;6.772;2023-03-01T03:35:19;12.13;;;10.87;;
11016;SDS011;54687;50.800;6.772;2023-03-01T03:37:48;12.13;;;10.93;;
11016;SDS011;54687;50.800;6.772;2023-03-01T03:40:32;11.77;;;10.60;;
11016;SDS011;54687;50.800;6.772;2023-03-01T03:43:00;15.87;;;11.60;;
11016;SDS011;54687;50.800;6.772;2023-03-01T03:45:27;11.37;;;10.17;;
11016;SDS011;54687;50.800;6.772;2023-03-01T03:47:54;13.43;;;12.07;;
11016;SDS011;54687;50.800;6.772;2023-03-01T03:50:20;14.47;;;13.00;;
11016;SDS011;54687;50.800;6.772;2023-03-01T03:52:48;13.47;;;12.07;;
11016;SDS011;54687;50.800;6.772;2023-03-01T03:55:15;12.40;;;11.10;;
11016;SDS011;54687;50.800;6.772;2023-03-01T03:57:45;12.43;;;11.13;;
11016;SDS011;54687;50.800;6.772;2023-03-01T04:00:16;13.63;;;12.33;;
11016;SDS011;54687;50.800;6.772;2023-03-01T04:02:44;11.93;;;10.77;;
11016;SDS011;54687;50.800;6.772;2023-03-01T04:05:12;12.73;;;11.53;;
11016;SDS011;54687;50.800;6.772;2023-03-01T04:07:40;15.30;;;11.60;;
11016;SDS011;54687;50.800;6.772;2023-03-01T04:10:10;12.97;;;11.70;;
11016;SDS011;54687;50.800;6.772;2023-03-01T04:12:38;13.07;;;11.80;;
11016;SDS011;54687;50.800;6.772;2023-03-01T04:15:06;15.00;;;13.50;;
11016;SDS011;54687;50.800;6.772;2023-03-01T04:17:39;13.33;;;12.00;;
11016;SDS011;54687;50.800;6.772;2023-03-01T04:20:07;12.63;;;11.43;;
11016;SDS011;54687;50.800;6.772;2023-03-01T04:22:36;13.30;;;12.00;;
11016;SDS011;54687;50.800;6.772;2023-03-01T04:25:03;14.13;;;12.30;;
11016;SDS011;54687;50.800;6.772;2023-03-01T04:27:33;14.30;;;12.80;;
11016;SDS011;54687;50.800;6.772;2023-03-01T04:29:59;14.17;;;12.70;;
11016;SDS011;54687;50.800;6.772;2023-03-01T04:32:26;13.70;;;11.77;;
11016;SDS011;54687;50.800;6.772;2023-03-01T04:34:53;13.83;;;12.43;;
11016;SDS011;54687;50.800;6.772;2023-03-01T04:37:19;14.37;;;13.07;;
11016;SDS011;54687;50.800;6.772;2023-03-01T04:39:46;14.20;;;12.70;;
11016;SDS011;54687;50.800;6.772;2023-03-01T04:42:12;15.60;;;11.77;;
11016;SDS011;54687;50.800;6.772;2023-03-01T04:44:41;14.53;;;12.87;;
11016;SDS011;54687;50.800;6.772;2023-03-01T04:47:07;15.10;;;12.53;;
11016;SDS011;54687;50.800;6.772;2023-03-01T04:49:34;13.90;;;12.50;;
11016;SDS011;54687;50.800;6.772;2023-03-01T04:52:01;13.17;;;11.63;;
11016;SDS011;54687;50.800;6.772;2023-03-01T04:54:28;15.07;;;13.47;;
11016;SDS011;54687;50.800;6.772;2023-03-01T04:56:54;13.43;;;12.07;;
11016;SDS011;54687;50.800;6.772;2023-03-01T04:59:21;13.47;;;12.17;;
11016;SDS011;54687;50.800;6.772;2023-03-01T05:01:49;14.17;;;12.77;;
11016;SDS011;54687;50.800;6.772;2023-03-01T05:04:16;14.77;;;13.20;;
11016;SDS011;54687;50.800;6.772;2023-03-01T05:06:43;14.33;;;12.83;;
11016;SDS011;54687;50.800;6.772;2023-03-01T05:09:10;14.03;;;12.73;;
11016;SDS011;54687;50.800;6.772;2023-03-01T05:11:37;14.83;;;11.97;;
11016;SDS011;54687;50.800;6.772;2023-03-01T05:14:04;13.97;;;12.57;;
11016;SDS011;54687;50.800;6.772;2023-03-01T05:16:32;15.17;;;13.57;;
11016;SDS011;54687;50.800;6.772;2023-03-01T05:19:02;15.83;;;13.90;;
11016;SDS011;54687;50.800;6.772;2023-03-01T05:21:37;15.33;;;13.83;;
11016;SDS011;54687;50.800;6.772;2023-03-01T05:24:23;15.53;;;13.93;;
11016;SDS011;54687;50.800;6.772;2023-03-01T05:26:50;15.63;;;13.97;;
11016;SDS011;54687;50.800;6.772;2023-03-01T05:29:17;16.10;;;14.27;;
11016;SDS011;54687;50.800;6.772;2023-03-01T05:31:50;20.93;;;18.57;;
11016;SDS011;54687;50.800;6.772;2023-03-01T05:34:22;22.40;;;20.10;;
11016;SDS011;54687;50.800;6.772;2023-03-01T05:36:50;20.80;;;18.47;;
11016;SDS011;54687;50.800;6.772;2023-03-01T05:39:18;20.93;;;18.70;;
11016;SDS011;54687;50.800;6.772;2023-03-01T05:41:47;22.37;;;19.90;;
11016;SDS011;54687;50.800;6.772;2023-03-01T05:44:14;22.20;;;18.07;;
11016;SDS011;54687;50.800;6.772;2023-03-01T05:46:41;20.57;;;18.47;;
11016;SDS011;54687;50.800;6.772;2023-03-01T05:49:07;21.70;;;18.83;;
11016;SDS011;54687;50.800;6.772;2023-03-01T05:51:35;20.40;;;18.20;;
11016;SDS011;54687;50.800;6.772;2023-03-01T05:54:02;22.50;;;18.43;;
11016;SDS011;54687;50.800;6.772;2023-03-01T05:56:32;20.87;;;17.70;;
11016;SDS011;54687;50.800;6.772;2023-03-01T05:58:58;18.47;;;16.50;;
11016;SDS011;54687;50.800;6.772;2023-03-01T06:01:25;17.47;;;15.73;;
11016;SDS011;54687;50.800;6.772;2023-03-01T06:03:52;16.80;;;14.80;;
11016;SDS011;54687;50.800;6.772;2023-03-01T06:06:18;16.63;;;14.50;;
11016;SDS011;54687;50.800;6.772;2023-03-01T06:08:46;16.50;;;14.87;;
11016;SDS011;54687;50.800;6.772;2023-03-01T06:11:13;17.23;;;14.70;;
11016;SDS011;54687;50.800;6.772;2023-03-01T06:13:40;16.87;;;14.63;;
11016;SDS011;54687;50.800;6.772;2023-03-01T06:16:07;19.70;;;17.13;;
11016;SDS011;54687;50.800;6.772;2023-03-01T06:18:34;16.57;;;14.60;;
11016;SDS011;54687;50.800;6.772;2023-03-01T06:21:01;16.17;;;14.53;;
11016;SDS011;54687;50.800;6.772;2023-03-01T06:23:28;16.63;;;14.83;;
11016;SDS011;54687;50.800;6.772;2023-03-01T06:25:57;16.33;;;14.63;;
11016;SDS011;54687;50.800;6.772;2023-03-01T06:28:24;16.13;;;14.43;;
11016;SDS011;54687;50.800;6.772;2023-03-01T06:30:50;14.50;;;13.00;;
11016;SDS011;54687;50.800;6.772;2023-03-01T06:33:17;14.80;;;13.37;;
11016;SDS011;54687;50.800;6.772;2023-03-01T06:35:45;15.03;;;13.33;;
11016;SDS011;54687;50.800;6.772;2023-03-01T06:38:12;15.23;;;13.60;;
11016;SDS011;54687;50.800;6.772;2023-03-01T06:40:40;15.13;;;13.53;;
11016;SDS011;54687;50.800;6.772;2023-03-01T06:43:08;15.30;;;13.80;;
11016;SDS011;54687;50.800;6.772;2023-03-01T06:45:34;15.30;;;13.80;;
11016;SDS011;54687;50.800;6.772;2023-03-01T06:48:02;15.03;;;13.53;;
11016;SDS011;54687;50.800;6.772;2023-03-01T06:50:30;17.07;;;14.37;;
11016;SDS011;54687;50.800;6.772;2023-03-01T06:52:57;31.30;;;19.40;;
11016;SDS011;54687;50.800;6.772;2023-03-01T06:55:24;21.67;;;16.80;;
11016;SDS011;54687;50.800;6.772;2023-03-01T06:57:53;20.60;;;16.03;;
11016;SDS011;54687;50.800;6.772;2023-03-01T07:00:22;22.23;;;17.77;;
11016;SDS011;54687;50.800;6.772;2023-03-01T07:02:49;20.07;;;16.07;;
11016;SDS011;54687;50.800;6.772;2023-03-01T07:05:17;18.93;;;16.10;;
11016;SDS011;54687;50.800;6.772;2023-03-01T07:07:43;21.70;;;16.07;;
11016;SDS011;54687;50.800;6.772;2023-03-01T07:10:10;19.10;;;15.73;;
11016;SDS011;54687;50.800;6.772;2023-03-01T07:12:38;17.13;;;14.67;;
11016;SDS011;54687;50.800;6.772;2023-03-01T07:15:07;17.80;;;15.60;;
11016;SDS011;54687;50.800;6.772;2023-03-01T07:17:37;21.03;;;16.67;;
11016;SDS011;54687;50.800;6.772;2023-03-01T07:20:05;18.20;;;15.80;;
11016;SDS011;54687;50.800;6.772;2023-03-01T07:22:32;18.17;;;15.90;;
11016;SDS011;54687;50.800;6.772;2023-03-01T07:24:58;18.00;;;15.70;;
11016;SDS011;54687;50.800;6.772;2023-03-01T07:27:25;20.90;;;17.23;;
11016;SDS011;54687;50.800;6.772;2023-03-01T07:29:52;19.80;;;17.70;;
11016;SDS011;54687;50.800;6.772;2023-03-01T07:32:18;21.90;;;17.93;;
11016;SDS011;54687;50.800;6.772;2023-03-01T07:34:46;18.23;;;16.43;;
11016;SDS011;54687;50.800;6.772;2023-03-01T07:37:12;21.17;;;17.33;;
11016;SDS011;54687;50.800;6.772;2023-03-01T07:39:40;20.40;;;16.20;;
11016;SDS011;54687;50.800;6.772;2023-03-01T07:42:07;20.47;;;17.27;;
11016;SDS011;54687;50.800;6.772;2023-03-01T07:44:34;23.20;;;17.20;;
11016;SDS011;54687;50.800;6.772;2023-03-01T07:47:00;18.57;;;16.67;;
11016;SDS011;54687;50.800;6.772;2023-03-01T07:49:27;20.63;;;17.33;;
11016;SDS011;54687;50.800;6.772;2023-03-01T07:51:55;20.57;;;17.10;;
11016;SDS011;54687;50.800;6.772;2023-03-01T07:54:21;22.33;;;17.13;;
11016;SDS011;54687;50.800;6.772;2023-03-01T07:56:48;22.93;;;17.13;;
11016;SDS011;54687;50.800;6.772;2023-03-01T07:59:16;18.80;;;15.47;;
11016;SDS011;54687;50.800;6.772;2023-03-01T08:01:43;16.90;;;15.13;;
11016;SDS011;54687;50.800;6.772;2023-03-01T08:04:09;19.40;;;15.60;;
11016;SDS011;54687;50.800;6.772;2023-03-01T08:06:36;19.93;;;14.67;;
11016;SDS011;54687;50.800;6.772;2023-03-01T08:09:06;16.33;;;13.57;;
11016;SDS011;54687;50.800;6.772;2023-03-01T08:11:33;16.03;;;14.33;;
11016;SDS011;54687;50.800;6.772;2023-03-01T08:14:00;16.00;;;14.33;;
11016;SDS011;54687;50.800;6.772;2023-03-01T08:16:26;17.10;;;14.60;;
11016;SDS011;54687;50.800;6.772;2023-03-01T08:18:53;22.17;;;16.60;;
11016;SDS011;54687;50.800;6.772;2023-03-01T08:21:21;25.10;;;18.77;;
11016;SDS011;54687;50.800;6.772;2023-03-01T08:23:48;21.47;;;16.83;;
11016;SDS011;54687;50.800;6.772;2023-03-01T08:26:16;24.00;;;16.17;;
11016;SDS011;54687;50.800;6.772;2023-03-01T08:28:44;18.80;;;15.63;;
11016;SDS011;54687;50.800;6.772;2023-03-01T08:31:15;17.03;;;14.23;;
11016;SDS011;54687;50.800;6.772;2023-03-01T08:33:44;16.13;;;14.43;;
11016;SDS011;54687;50.800;6.772;2023-03-01T08:36:17;16.73;;;14.97;;
11016;SDS011;54687;50.800;6.772;2023-03-01T08:38:45;15.50;;;13.60;;
11016;SDS011;54687;50.800;6.772;2023-03-01T08:41:12;19.03;;;15.10;;
11016;SDS011;54687;50.800;6.772;2023-03-01T08:43:40;16.97;;;15.17;;
11016;SDS011;54687;50.800;6.772;2023-03-01T08:46:07;19.60;;;14.83;;
11016;SDS011;54687;50.800;6.772;2023-03-01T08:48:34;18.53;;;14.60;;
11016;SDS011;54687;50.800;6.772;2023-03-01T08:51:06;20.03;;;15.63;;
11016;SDS011;54687;50.800;6.772;2023-03-01T08:53:35;23.07;;;15.30;;
11016;SDS011;54687;50.800;6.772;2023-03-01T08:56:02;17.63;;;15.57;;
11016;SDS011;54687;50.800;6.772;2023-03-01T08:58:29;18.10;;;16.30;;
11016;SDS011;54687;50.800;6.772;2023-03-01T09:00:58;20.43;;;17.30;;
11016;SDS011;54687;50.800;6.772;2023-03-01T09:03:25;19.90;;;16.57;;
11016;SDS011;54687;50.800;6.772;2023-03-01T09:05:53;19.87;;;15.87;;
11016;SDS011;54687;50.800;6.772;2023-03-01T09:08:19;17.83;;;16.00;;
11016;SDS011;54687;50.800;6.772;2023-03-01T09:10:47;18.60;;;16.10;;
11016;SDS011;54687;50.800;6.772;2023-03-01T09:13:14;17.37;;;15.57;;
11016;SDS011;54687;50.800;6.772;2023-03-01T09:15:40;18.70;;;16.70;;
11016;SDS011;54687;50.800;6.772;2023-03-01T09:18:08;17.80;;;15.93;;
11016;SDS011;54687;50.800;6.772;2023-03-01T09:20:35;17.80;;;15.90;;
11016;SDS011;54687;50.800;6.772;2023-03-01T09:23:01;18.20;;;16.30;;
11016;SDS011;54687;50.800;6.772;2023-03-01T09:25:28;18.67;;;16.73;;
11016;SDS011;54687;50.800;6.772;2023-03-01T09:27:54;22.57;;;16.00;;
11016;SDS011;54687;50.800;6.772;2023-03-01T09:30:22;17.03;;;15.23;;
11016;SDS011;54687;50.800;6.772;2023-03-01T09:32:49;16.50;;;14.87;;
11016;SDS011;54687;50.800;6.772;2023-03-01T09:35:17;16.90;;;15.07;;
11016;SDS011;54687;50.800;6.772;2023-03-01T09:37:45;17.93;;;15.90;;
11016;SDS011;54687;50.800;6.772;2023-03-01T09:40:12;15.73;;;14.13;;
11016;SDS011;54687;50.800;6.772;2023-03-01T09:42:45;16.37;;;14.57;;
11016;SDS011;54687;50.800;6.772;2023-03-01T09:45:18;16.87;;;15.03;;
11016;SDS011;54687;50.800;6.772;2023-03-01T09:47:51;22.00;;;17.87;;
11016;SDS011;54687;50.800;6.772;2023-03-01T09:50:20;20.23;;;16.73;;
11016;SDS011;54687;50.800;6.772;2023-03-01T09:52:50;18.43;;;16.50;;
11016;SDS011;54687;50.800;6.772;2023-03-01T09:55:37;17.80;;;15.87;;
11016;SDS011;54687;50.800;6.772;2023-03-01T09:58:17;16.50;;;14.77;;
11016;SDS011;54687;50.800;6.772;2023-03-01T10:00:55;19.77;;;16.17;;
11016;SDS011;54687;50.800;6.772;2023-03-01T10:03:26;16.43;;;14.73;;
11016;SDS011;54687;50.800;6.772;2023-03-01T10:05:59;18.13;;;16.23;;
11016;SDS011;54687;50.800;6.772;2023-03-01T10:08:33;17.50;;;15.70;;
11016;SDS011;54687;50.800;6.772;2023-03-01T10:11:04;19.03;;;16.67;;
11016;SDS011;54687;50.800;6.772;2023-03-01T10:13:33;17.07;;;14.80;;
11016;SDS011;54687;50.800;6.772;2023-03-01T10:16:10;15.43;;;13.83;;
11016;SDS011;54687;50.800;6.772;2023-03-01T10:18:41;16.00;;;14.37;;
11016;SDS011;54687;50.800;6.772;2023-03-01T10:21:14;17.30;;;15.20;;
11016;SDS011;54687;50.800;6.772;2023-03-01T10:23:44;16.40;;;14.80;;
11016;SDS011;54687;50.800;6.772;2023-03-01T10:26:15;17.03;;;15.13;;
11016;SDS011;54687;50.800;6.772;2023-03-01T10:28:54;17.07;;;14.97;;
11016;SDS011;54687;50.800;6.772;2023-03-01T10:31:31;16.90;;;15.10;;
11016;SDS011;54687;50.800;6.772;2023-03-01T10:34:07;16.60;;;14.80;;
11016;SDS011;54687;50.800;6.772;2023-03-01T10:36:37;16.87;;;14.17;;
11016;SDS011;54687;50.800;6.772;2023-03-01T10:39:11;15.80;;;14.00;;
11016;SDS011;54687;50.800;6.772;2023-03-01T10:41:44;15.87;;;14.17;;
11016;SDS011;54687;50.800;6.772;2023-03-01T10:44:34;16.93;;;15.13;;
11016;SDS011;54687;50.800;6.772;2023-03-01T10:47:03;16.20;;;14.50;;
11016;SDS011;54687;50.800;6.772;2023-03-01T10:49:30;17.17;;;15.37;;
11016;SDS011;54687;50.800;6.772;2023-03-01T10:51:59;17.43;;;14.67;;
11016;SDS011;54687;50.800;6.772;2023-03-01T10:54:50;16.15;;;14.27;;
11016;SDS011;54687;50.800;6.772;2023-03-01T10:57:33;17.23;;;14.30;;
11016;SDS011;54687;50.800;6.772;2023-03-01T11:00:16;15.63;;;14.05;;
11016;SDS011;54687;50.800;6.772;2023-03-01T11:02:49;16.63;;;14.70;;
11016;SDS011;54687;50.800;6.772;2023-03-01T11:05:19;15.65;;;14.10;;
11016;SDS011;54687;50.800;6.772;2023-03-01T11:07:50;17.98;;;14.57;;
11016;SDS011;54687;50.800;6.772;2023-03-01T11:10:19;17.33;;;14.35;;
11016;SDS011;54687;50.800;6.772;2023-03-01T11:12:47;15.80;;;14.13;;
11016;SDS011;54687;50.800;6.772;2023-03-01T11:15:21;17.57;;;14.93;;
11016;SDS011;54687;50.800;6.772;2023-03-01T11:17:50;16.55;;;14.82;;
11016;SDS011;54687;50.800;6.772;2023-03-01T11:20:21;17.85;;;15.10;;
11016;SDS011;54687;50.800;6.772;2023-03-01T11:22:54;16.42;;;14.70;;
11016;SDS011;54687;50.800;6.772;2023-03-01T11:25:24;16.27;;;14.68;;
11016;SDS011;54687;50.800;6.772;2023-03-01T11:27:52;18.67;;;14.55;;
11016;SDS011;54687;50.800;6.772;2023-03-01T11:30:21;17.13;;;15.32;;
11016;SDS011;54687;50.800;6.772;2023-03-01T11:32:53;16.52;;;14.07;;
11016;SDS011;54687;50.800;6.772;2023-03-01T11:35:29;16.85;;;14.90;;
11016;SDS011;54687;50.800;6.772;2023-03-01T11:38:02;16.33;;;14.82;;
11016;SDS011;54687;50.800;6.772;2023-03-01T11:40:43;18.42;;;15.65;;
11016;SDS011;54687;50.800;6.772;2023-03-01T11:43:15;15.60;;;14.00;;
11016;SDS011;54687;50.800;6.772;2023-03-01T11:45:56;15.75;;;14.10;;
11016;SDS011;54687;50.800;6.772;2023-03-01T11:48:54;16.45;;;14.07;;
11016;SDS011;54687;50.800;6.772;2023-03-01T11:51:33;15.98;;;14.00;;
11016;SDS011;54687;50.800;6.772;2023-03-01T11:54:19;18.05;;;14.27;;
11016;SDS011;54687;50.800;6.772;2023-03-01T11:57:00;18.10;;;14.55;;
11016;SDS011;54687;50.800;6.772;2023-03-01T12:02:41;15.82;;;14.13;;
11016;SDS011;54687;50.800;6.772;2023-03-01T12:08:19;16.05;;;14.43;;
11016;SDS011;54687;50.800;6.772;2023-03-01T12:10:57;18.90;;;15.57;;
11016;SDS011;54687;50.800;6.772;2023-03-01T12:13:38;17.08;;;13.52;;
11016;SDS011;54687;50.800;6.772;2023-03-01T12:16:23;15.75;;;14.15;;
11016;SDS011;54687;50.800;6.772;2023-03-01T12:21:58;18.08;;;16.17;;
11016;SDS011;54687;50.800;6.772;2023-03-01T12:24:55;15.25;;;13.70;;
11016;SDS011;54687;50.800;6.772;2023-03-01T12:27:41;16.55;;;14.20;;
11016;SDS011;54687;50.800;6.772;2023-03-01T12:30:23;13.32;;;12.02;;
11016;SDS011;54687;50.800;6.772;2023-03-01T12:33:05;12.55;;;10.88;;
11016;SDS011;54687;50.800;6.772;2023-03-01T12:38:45;14.32;;;11.63;;
11016;SDS011;54687;50.800;6.772;2023-03-01T12:44:23;13.07;;;11.75;;
11016;SDS011;54687;50.800;6.772;2023-03-01T12:47:15;12.57;;;10.68;;
11016;SDS011;54687;50.800;6.772;2023-03-01T12:49:49;16.48;;;13.15;;
11016;SDS011;54687;50.800;6.772;2023-03-01T12:52:21;14.55;;;13.02;;
11016;SDS011;54687;50.800;6.772;2023-03-01T12:54:53;17.88;;;14.63;;
11016;SDS011;54687;50.800;6.772;2023-03-01T12:57:25;15.13;;;10.30;;
11016;SDS011;54687;50.800;6.772;2023-03-01T13:00:17;11.95;;;10.77;;
11016;SDS011;54687;50.800;6.772;2023-03-01T13:02:54;13.07;;;11.40;;
11016;SDS011;54687;50.800;6.772;2023-03-01T13:05:31;15.23;;;12.35;;
11016;SDS011;54687;50.800;6.772;2023-03-01T13:08:07;13.38;;;11.95;;
11016;SDS011;54687;50.800;6.772;2023-03-01T13:10:42;15.23;;;12.55;;
11016;SDS011;54687;50.800;6.772;2023-03-01T13:13:14;13.15;;;11.35;;
11016;SDS011;54687;50.800;6.772;2023-03-01T13:15:48;13.30;;;11.00;;
11016;SDS011;54687;50.800;6.772;2023-03-01T13:18:32;12.55;;;11.30;;
11016;SDS011;54687;50.800;6.772;2023-03-01T13:21:00;14.55;;;11.65;;
11016;SDS011;54687;50.800;6.772;2023-03-01T13:23:30;13.02;;;11.73;;
11016;SDS011;54687;50.800;6.772;2023-03-01T13:26:04;12.55;;;11.30;;
11016;SDS011;54687;50.800;6.772;2023-03-01T13:28:41;14.27;;;11.48;;
11016;SDS011;54687;50.800;6.772;2023-03-01T13:37:21;11.98;;;10.13;;
11016;SDS011;54687;50.800;6.772;2023-03-01T13:39:51;13.25;;;11.10;;
11016;SDS011;54687;50.800;6.772;2023-03-01T13:42:31;11.13;;;10.00;;
11016;SDS011;54687;50.800;6.772;2023-03-01T13:45:04;12.43;;;10.13;;
11016;SDS011;54687;50.800;6.772;2023-03-01T13:47:41;11.60;;;10.07;;
11016;SDS011;54687;50.800;6.772;2023-03-01T13:50:18;13.65;;;10.77;;
11016;SDS011;54687;50.800;6.772;2023-03-01T13:52:49;12.70;;;11.05;;
11016;SDS011;54687;50.800;6.772;2023-03-01T13:55:20;12.82;;;11.50;;
11016;SDS011;54687;50.800;6.772;2023-03-01T13:57:51;12.95;;;11.63;;
11016;SDS011;54687;50.800;6.772;2023-03-01T14:00:30;13.35;;;11.95;;
11016;SDS011;54687;50.800;6.772;2023-03-01T14:05:58;14.15;;;10.70;;
11016;SDS011;54687;50.800;6.772;2023-03-01T14:08:28;11.63;;;10.43;;
11016;SDS011;54687;50.800;6.772;2023-03-01T14:11:03;11.52;;;10.32;;
11016;SDS011;54687;50.800;6.772;2023-03-01T14:13:49;11.18;;;10.02;;
11016;SDS011;54687;50.800;6.772;2023-03-01T14:16:31;10.43;;;9.43;;
11016;SDS011;54687;50.800;6.772;2023-03-01T14:19:14;11.70;;;10.50;;
11016;SDS011;54687;50.800;6.772;2023-03-01T14:21:45;10.70;;;9.57;;
11016;SDS011;54687;50.800;6.772;2023-03-01T14:24:16;11.70;;;10.23;;
11016;SDS011;54687;50.800;6.772;2023-03-01T14:26:44;15.98;;;11.55;;
11016;SDS011;54687;50.800;6.772;2023-03-01T14:29:23;12.68;;;10.30;;
11016;SDS011;54687;50.800;6.772;2023-03-01T14:31:51;13.98;;;10.85;;
11016;SDS011;54687;50.800;6.772;2023-03-01T14:34:18;11.38;;;10.18;;
11016;SDS011;54687;50.800;6.772;2023-03-01T14:36:47;11.57;;;10.43;;
11016;SDS011;54687;50.800;6.772;2023-03-01T14:39:18;13.40;;;12.00;;
11016;SDS011;54687;50.800;6.772;2023-03-01T14:41:47;13.07;;;11.43;;
11016;SDS011;54687;50.800;6.772;2023-03-01T14:44:15;16.17;;;13.10;;
11016;SDS011;54687;50.800;6.772;2023-03-01T14:46:45;13.45;;;12.13;;
11016;SDS011;54687;50.800;6.772;2023-03-01T14:49:14;12.68;;;11.25;;
11016;SDS011;54687;50.800;6.772;2023-03-01T14:51:45;15.32;;;12.23;;
11016;SDS011;54687;50.800;6.772;2023-03-01T14:54:21;14.82;;;11.95;;
11016;SDS011;54687;50.800;6.772;2023-03-01T14:56:51;13.23;;;11.77;;
11016;SDS011;54687;50.800;6.772;2023-03-01T14:59:19;12.95;;;10.82;;
11016;SDS011;54687;50.800;6.772;2023-03-01T15:01:48;14.18;;;11.05;;
11016;SDS011;54687;50.800;6.772;2023-03-01T15:04:16;14.15;;;10.70;;
11016;SDS011;54687;50.800;6.772;2023-03-01T15:06:45;11.77;;;10.57;;
11016;SDS011;54687;50.800;6.772;2023-03-01T15:09:16;11.98;;;10.73;;
11016;SDS011;54687;50.800;6.772;2023-03-01T15:11:43;11.32;;;10.15;;
11016;SDS011;54687;50.800;6.772;2023-03-01T15:14:26;14.20;;;11.32;;
11016;SDS011;54687;50.800;6.772;2023-03-01T15:16:55;12.13;;;10.70;;
11016;SDS011;54687;50.800;6.772;2023-03-01T15:19:22;20.05;;;10.18;;
11016;SDS011;54687;50.800;6.772;2023-03-01T15:21:55;11.93;;;9.35;;
11016;SDS011;54687;50.800;6.772;2023-03-01T15:24:24;12.52;;;9.27;;
11016;SDS011;54687;50.800;6.772;2023-03-01T15:26:55;10.70;;;9.30;;
11016;SDS011;54687;50.800;6.772;2023-03-01T15:29:27;13.13;;;9.90;;
11016;SDS011;54687;50.800;6.772;2023-03-01T15:31:56;10.57;;;9.48;;
11016;SDS011;54687;50.800;6.772;2023-03-01T15:34:25;15.68;;;10.80;;
11016;SDS011;54687;50.800;6.772;2023-03-01T15:36:55;9.88;;;8.38;;
11016;SDS011;54687;50.800;6.772;2023-03-01T15:39:30;12.93;;;9.93;;
11016;SDS011;54687;50.800;6.772;2023-03-01T15:42:02;9.48;;;8.55;;
11016;SDS011;54687;50.800;6.772;2023-03-01T15:44:30;12.40;;;9.68;;
11016;SDS011;54687;50.800;6.772;2023-03-01T15:46:58;11.52;;;10.23;;
11016;SDS011;54687;50.800;6.772;2023-03-01T15:49:27;10.40;;;9.25;;
11016;SDS011;54687;50.800;6.772;2023-03-01T15:52:02;11.68;;;9.75;;
11016;SDS011;54687;50.800;6.772;2023-03-01T15:54:30;12.60;;;10.45;;
11016;SDS011;54687;50.800;6.772;2023-03-01T15:56:57;12.00;;;10.15;;
11016;SDS011;54687;50.800;6.772;2023-03-01T15:59:23;10.52;;;9.00;;
11016;SDS011;54687;50.800;6.772;2023-03-01T16:01:50;10.48;;;9.43;;
11016;SDS011;54687;50.800;6.772;2023-03-01T16:04:17;9.88;;;8.98;;
11016;SDS011;54687;50.800;6.772;2023-03-01T16:06:48;10.00;;;9.10;;
11016;SDS011;54687;50.800;6.772;2023-03-01T16:09:20;10.88;;;9.57;;
11016;SDS011;54687;50.800;6.772;2023-03-01T16:11:48;11.90;;;10.27;;
11016;SDS011;54687;50.800;6.772;2023-03-01T16:14:15;12.13;;;10.30;;
11016;SDS011;54687;50.800;6.772;2023-03-01T16:16:41;10.82;;;9.68;;
11016;SDS011;54687;50.800;6.772;2023-03-01T16:19:08;12.05;;;10.85;;
11016;SDS011;54687;50.800;6.772;2023-03-01T16:21:35;11.98;;;10.77;;
11016;SDS011;54687;50.800;6.772;2023-03-01T16:24:02;11.35;;;10.25;;
11016;SDS011;54687;50.800;6.772;2023-03-01T16:26:30;11.05;;;9.70;;
11016;SDS011;54687;50.800;6.772;2023-03-01T16:28:57;12.07;;;10.45;;
11016;SDS011;54687;50.800;6.772;2023-03-01T16:31:24;11.35;;;9.70;;
11016;SDS011;54687;50.800;6.772;2023-03-01T16:33:52;11.63;;;10.02;;
11016;SDS011;54687;50.800;6.772;2023-03-01T16:36:21;11.63;;;9.90;;